sensor_id;sensor_type;location;lat;lon;timestamp;temperature;humidity
2657;DHT22;1338;48.176;11.792;2022-07-21T00:00:18;22.30;1.00
2657;DHT22;1338;48.176;11.792;2022-07-21T00:02:48;21.90;1.00
2657;DHT22;1338;48.176;11.792;2022-07-21T00:05:16;22.00;1.00
2657;DHT22;1338;48.176;11.792;2022-07-21T00:07:44;21.80;1.00
2657;DHT22;1338;48.176;11.792;2022-07-21T00:10:13;21.80;1.00
2657;DHT22;1338;48.176;11.792;2022-07-21T00:12:42;22.90;1.00
2657;DHT22;1338;48.176;11.792;2022-07-21T00:15:11;22.10;1.00
2657;DHT22;1338;48.176;11.792;2022-07-21T00:17:42;21.70;1.00
2657;DHT22;1338;48.176;11.792;2022-07-21T00:22:39;21.30;1.00
2657;DHT22;1338;48.176;11.792;2022-07-21T00:25:09;21.30;1.00
2657;DHT22;1338;48.176;11.792;2022-07-21T00:27:38;21.30;1.00
2657;DHT22;1338;48.176;11.792;2022-07-21T00:30:08;21.70;1.00
2657;DHT22;1338;48.176;11.792;2022-07-21T00:32:37;21.40;1.00
2657;DHT22;1338;48.176;11.792;2022-07-21T00:35:08;21.40;1.00
2657;DHT22;1338;48.176;11.792;2022-07-21T00:37:37;21.40;1.00
2657;DHT22;1338;48.176;11.792;2022-07-21T00:40:08;21.30;1.00
2657;DHT22;1338;48.176;11.792;2022-07-21T00:42:37;21.30;1.00
2657;DHT22;1338;48.176;11.792;2022-07-21T00:45:06;21.20;1.00
2657;DHT22;1338;48.176;11.792;2022-07-21T00:47:35;21.20;1.00
2657;DHT22;1338;48.176;11.792;2022-07-21T00:50:07;21.10;1.00
2657;DHT22;1338;48.176;11.792;2022-07-21T00:52:36;21.10;1.00
2657;DHT22;1338;48.176;11.792;2022-07-21T00:55:05;21.10;1.00
2657;DHT22;1338;48.176;11.792;2022-07-21T00:57:34;21.10;1.00
2657;DHT22;1338;48.176;11.792;2022-07-21T01:00:03;21.00;1.00
2657;DHT22;1338;48.176;11.792;2022-07-21T01:02:32;21.10;1.00
2657;DHT22;1338;48.176;11.792;2022-07-21T01:05:04;21.10;1.00
2657;DHT22;1338;48.176;11.792;2022-07-21T01:07:34;21.20;1.00
2657;DHT22;1338;48.176;11.792;2022-07-21T01:10:03;21.10;1.00
2657;DHT22;1338;48.176;11.792;2022-07-21T01:12:31;21.10;1.00
2657;DHT22;1338;48.176;11.792;2022-07-21T01:15:00;21.20;1.00
2657;DHT22;1338;48.176;11.792;2022-07-21T01:17:28;21.20;1.00
2657;DHT22;1338;48.176;11.792;2022-07-21T01:19:56;21.20;1.00
2657;DHT22;1338;48.176;11.792;2022-07-21T01:22:26;21.20;1.00
2657;DHT22;1338;48.176;11.792;2022-07-21T01:24:54;21.20;1.00
2657;DHT22;1338;48.176;11.792;2022-07-21T01:27:24;21.20;1.00
2657;DHT22;1338;48.176;11.792;2022-07-21T01:29:53;21.10;1.00
2657;DHT22;1338;48.176;11.792;2022-07-21T01:32:21;21.10;1.00
2657;DHT22;1338;48.176;11.792;2022-07-21T01:34:50;21.00;1.00
2657;DHT22;1338;48.176;11.792;2022-07-21T01:37:21;21.00;1.00
2657;DHT22;1338;48.176;11.792;2022-07-21T01:39:51;21.00;1.00
2657;DHT22;1338;48.176;11.792;2022-07-21T01:42:37;21.00;1.00
2657;DHT22;1338;48.176;11.792;2022-07-21T01:45:06;20.90;1.00
2657;DHT22;1338;48.176;11.792;2022-07-21T01:47:35;20.80;1.00
2657;DHT22;1338;48.176;11.792;2022-07-21T01:50:04;20.70;1.00
2657;DHT22;1338;48.176;11.792;2022-07-21T01:52:32;20.70;1.00
2657;DHT22;1338;48.176;11.792;2022-07-21T01:55:02;20.60;1.00
2657;DHT22;1338;48.176;11.792;2022-07-21T01:57:30;20.70;1.00
2657;DHT22;1338;48.176;11.792;2022-07-21T01:59:58;20.60;1.00
2657;DHT22;1338;48.176;11.792;2022-07-21T02:02:26;20.60;1.00
2657;DHT22;1338;48.176;11.792;2022-07-21T02:04:54;20.50;1.00
2657;DHT22;1338;48.176;11.792;2022-07-21T02:07:23;20.50;1.00
2657;DHT22;1338;48.176;11.792;2022-07-21T02:09:51;20.50;1.00
2657;DHT22;1338;48.176;11.792;2022-07-21T02:12:20;20.50;1.00
2657;DHT22;1338;48.176;11.792;2022-07-21T02:14:48;20.40;1.00
2657;DHT22;1338;48.176;11.792;2022-07-21T02:17:16;20.40;1.00
2657;DHT22;1338;48.176;11.792;2022-07-21T02:19:45;20.30;1.00
2657;DHT22;1338;48.176;11.792;2022-07-21T02:22:13;20.30;1.00
2657;DHT22;1338;48.176;11.792;2022-07-21T02:24:41;20.30;1.00
2657;DHT22;1338;48.176;11.792;2022-07-21T02:27:09;20.30;1.00
2657;DHT22;1338;48.176;11.792;2022-07-21T02:29:39;20.30;1.00
2657;DHT22;1338;48.176;11.792;2022-07-21T02:32:07;20.40;1.00
2657;DHT22;1338;48.176;11.792;2022-07-21T02:34:35;20.40;1.00
2657;DHT22;1338;48.176;11.792;2022-07-21T02:37:03;20.40;1.00
2657;DHT22;1338;48.176;11.792;2022-07-21T02:39:31;20.40;1.00
2657;DHT22;1338;48.176;11.792;2022-07-21T02:41:59;20.30;1.00
2657;DHT22;1338;48.176;11.792;2022-07-21T02:44:28;20.30;1.00
2657;DHT22;1338;48.176;11.792;2022-07-21T02:46:59;20.30;1.00
2657;DHT22;1338;48.176;11.792;2022-07-21T02:49:27;20.20;1.00
2657;DHT22;1338;48.176;11.792;2022-07-21T02:51:55;20.20;1.00
2657;DHT22;1338;48.176;11.792;2022-07-21T02:54:23;20.10;1.00
2657;DHT22;1338;48.176;11.792;2022-07-21T02:56:52;20.10;1.00
2657;DHT22;1338;48.176;11.792;2022-07-21T02:59:20;20.00;1.00
2657;DHT22;1338;48.176;11.792;2022-07-21T03:01:48;20.10;1.00
2657;DHT22;1338;48.176;11.792;2022-07-21T03:04:18;20.10;1.00
2657;DHT22;1338;48.176;11.792;2022-07-21T03:06:46;20.20;1.00
2657;DHT22;1338;48.176;11.792;2022-07-21T03:09:14;20.10;1.00
2657;DHT22;1338;48.176;11.792;2022-07-21T03:11:42;20.20;1.00
2657;DHT22;1338;48.176;11.792;2022-07-21T03:14:10;20.20;1.00
2657;DHT22;1338;48.176;11.792;2022-07-21T03:16:39;20.20;1.00
2657;DHT22;1338;48.176;11.792;2022-07-21T03:19:07;20.20;1.00
2657;DHT22;1338;48.176;11.792;2022-07-21T03:21:40;20.20;1.00
2657;DHT22;1338;48.176;11.792;2022-07-21T03:24:08;20.20;1.00
2657;DHT22;1338;48.176;11.792;2022-07-21T03:26:37;20.10;1.00
2657;DHT22;1338;48.176;11.792;2022-07-21T03:29:05;20.10;1.00
2657;DHT22;1338;48.176;11.792;2022-07-21T03:31:34;20.10;1.00
2657;DHT22;1338;48.176;11.792;2022-07-21T03:34:02;20.20;1.00
2657;DHT22;1338;48.176;11.792;2022-07-21T03:36:30;20.10;1.00
2657;DHT22;1338;48.176;11.792;2022-07-21T03:39:00;20.10;1.00
2657;DHT22;1338;48.176;11.792;2022-07-21T03:41:28;20.10;1.00
2657;DHT22;1338;48.176;11.792;2022-07-21T03:43:56;20.10;1.00
2657;DHT22;1338;48.176;11.792;2022-07-21T03:46:24;20.10;1.00
2657;DHT22;1338;48.176;11.792;2022-07-21T03:48:53;20.00;1.00
2657;DHT22;1338;48.176;11.792;2022-07-21T03:51:21;20.00;1.00
2657;DHT22;1338;48.176;11.792;2022-07-21T03:53:49;20.00;1.00
2657;DHT22;1338;48.176;11.792;2022-07-21T03:56:19;19.90;1.00
2657;DHT22;1338;48.176;11.792;2022-07-21T03:58:47;19.90;1.00
2657;DHT22;1338;48.176;11.792;2022-07-21T04:01:15;20.00;1.00
2657;DHT22;1338;48.176;11.792;2022-07-21T04:03:44;20.00;1.00
2657;DHT22;1338;48.176;11.792;2022-07-21T04:06:12;20.10;1.00
2657;DHT22;1338;48.176;11.792;2022-07-21T04:08:40;20.20;1.00
2657;DHT22;1338;48.176;11.792;2022-07-21T04:11:08;20.30;1.00
2657;DHT22;1338;48.176;11.792;2022-07-21T04:13:38;20.30;1.00
2657;DHT22;1338;48.176;11.792;2022-07-21T04:16:06;20.30;1.00
2657;DHT22;1338;48.176;11.792;2022-07-21T04:18:35;20.10;1.00
2657;DHT22;1338;48.176;11.792;2022-07-21T04:21:03;20.10;1.00
2657;DHT22;1338;48.176;11.792;2022-07-21T04:23:31;20.20;1.00
2657;DHT22;1338;48.176;11.792;2022-07-21T04:25:59;20.30;1.00
2657;DHT22;1338;48.176;11.792;2022-07-21T04:28:28;20.30;1.00
2657;DHT22;1338;48.176;11.792;2022-07-21T04:30:57;20.40;1.00
2657;DHT22;1338;48.176;11.792;2022-07-21T04:33:25;20.40;1.00
2657;DHT22;1338;48.176;11.792;2022-07-21T04:35:58;20.50;1.00
2657;DHT22;1338;48.176;11.792;2022-07-21T04:38:26;20.70;1.00
2657;DHT22;1338;48.176;11.792;2022-07-21T04:40:54;20.90;1.00
2657;DHT22;1338;48.176;11.792;2022-07-21T04:43:22;20.90;1.00
2657;DHT22;1338;48.176;11.792;2022-07-21T04:45:51;20.80;1.00
2657;DHT22;1338;48.176;11.792;2022-07-21T04:48:20;20.90;1.00
2657;DHT22;1338;48.176;11.792;2022-07-21T04:50:49;20.80;1.00
2657;DHT22;1338;48.176;11.792;2022-07-21T04:53:17;20.70;1.00
2657;DHT22;1338;48.176;11.792;2022-07-21T04:55:46;20.70;1.00
2657;DHT22;1338;48.176;11.792;2022-07-21T04:58:14;20.60;1.00
2657;DHT22;1338;48.176;11.792;2022-07-21T05:00:42;20.60;1.00
2657;DHT22;1338;48.176;11.792;2022-07-21T05:03:11;20.60;1.00
2657;DHT22;1338;48.176;11.792;2022-07-21T05:05:41;20.60;1.00
2657;DHT22;1338;48.176;11.792;2022-07-21T05:08:09;20.50;1.00
2657;DHT22;1338;48.176;11.792;2022-07-21T05:10:38;20.50;1.00
2657;DHT22;1338;48.176;11.792;2022-07-21T05:13:06;20.40;1.00
2657;DHT22;1338;48.176;11.792;2022-07-21T05:15:34;20.30;1.00
2657;DHT22;1338;48.176;11.792;2022-07-21T05:18:02;20.20;1.00
2657;DHT22;1338;48.176;11.792;2022-07-21T05:20:31;20.30;1.00
2657;DHT22;1338;48.176;11.792;2022-07-21T05:23:00;20.30;1.00
2657;DHT22;1338;48.176;11.792;2022-07-21T05:25:29;20.30;1.00
2657;DHT22;1338;48.176;11.792;2022-07-21T05:27:58;20.40;1.00
2657;DHT22;1338;48.176;11.792;2022-07-21T05:30:27;20.40;1.00
2657;DHT22;1338;48.176;11.792;2022-07-21T05:32:55;20.50;1.00
2657;DHT22;1338;48.176;11.792;2022-07-21T05:35:23;20.50;1.00
2657;DHT22;1338;48.176;11.792;2022-07-21T05:37:51;20.40;1.00
2657;DHT22;1338;48.176;11.792;2022-07-21T05:40:21;20.50;1.00
2657;DHT22;1338;48.176;11.792;2022-07-21T05:42:49;20.60;1.00
2657;DHT22;1338;48.176;11.792;2022-07-21T05:45:18;20.60;1.00
2657;DHT22;1338;48.176;11.792;2022-07-21T05:47:46;20.50;1.00
2657;DHT22;1338;48.176;11.792;2022-07-21T05:50:14;20.70;1.00
2657;DHT22;1338;48.176;11.792;2022-07-21T05:52:42;20.70;1.00
2657;DHT22;1338;48.176;11.792;2022-07-21T05:55:12;20.60;1.00
2657;DHT22;1338;48.176;11.792;2022-07-21T05:57:41;20.60;1.00
2657;DHT22;1338;48.176;11.792;2022-07-21T06:00:13;20.70;1.00
2657;DHT22;1338;48.176;11.792;2022-07-21T06:02:43;20.70;1.00
2657;DHT22;1338;48.176;11.792;2022-07-21T06:05:11;20.80;1.00
2657;DHT22;1338;48.176;11.792;2022-07-21T06:07:40;20.80;1.00
2657;DHT22;1338;48.176;11.792;2022-07-21T06:10:08;20.90;1.00
2657;DHT22;1338;48.176;11.792;2022-07-21T06:12:43;20.80;1.00
2657;DHT22;1338;48.176;11.792;2022-07-21T06:15:12;20.70;1.00
2657;DHT22;1338;48.176;11.792;2022-07-21T06:17:41;21.00;1.00
2657;DHT22;1338;48.176;11.792;2022-07-21T06:20:10;21.20;1.00
2657;DHT22;1338;48.176;11.792;2022-07-21T06:22:38;21.10;1.00
2657;DHT22;1338;48.176;11.792;2022-07-21T06:25:07;21.20;1.00
2657;DHT22;1338;48.176;11.792;2022-07-21T06:27:36;21.20;1.00
2657;DHT22;1338;48.176;11.792;2022-07-21T06:30:06;20.90;1.00
2657;DHT22;1338;48.176;11.792;2022-07-21T06:32:35;20.90;1.00
2657;DHT22;1338;48.176;11.792;2022-07-21T06:35:04;20.80;1.00
2657;DHT22;1338;48.176;11.792;2022-07-21T06:37:32;20.90;1.00
2657;DHT22;1338;48.176;11.792;2022-07-21T06:40:00;20.90;1.00
2657;DHT22;1338;48.176;11.792;2022-07-21T06:42:30;21.00;1.00
2657;DHT22;1338;48.176;11.792;2022-07-21T06:44:58;20.70;1.00
2657;DHT22;1338;48.176;11.792;2022-07-21T06:47:27;21.00;1.00
2657;DHT22;1338;48.176;11.792;2022-07-21T06:49:56;20.90;1.00
2657;DHT22;1338;48.176;11.792;2022-07-21T06:52:32;21.20;1.00
2657;DHT22;1338;48.176;11.792;2022-07-21T06:55:01;21.00;1.00
2657;DHT22;1338;48.176;11.792;2022-07-21T06:57:30;21.10;1.00
2657;DHT22;1338;48.176;11.792;2022-07-21T06:59:58;21.10;1.00
2657;DHT22;1338;48.176;11.792;2022-07-21T07:02:27;21.40;1.00
2657;DHT22;1338;48.176;11.792;2022-07-21T07:04:56;21.40;1.00
2657;DHT22;1338;48.176;11.792;2022-07-21T07:07:33;21.00;1.00
2657;DHT22;1338;48.176;11.792;2022-07-21T07:10:01;20.90;1.00
2657;DHT22;1338;48.176;11.792;2022-07-21T07:12:30;20.90;1.00
2657;DHT22;1338;48.176;11.792;2022-07-21T07:15:18;21.10;1.00
2657;DHT22;1338;48.176;11.792;2022-07-21T07:17:48;21.00;1.00
2657;DHT22;1338;48.176;11.792;2022-07-21T07:20:16;20.80;1.00
2657;DHT22;1338;48.176;11.792;2022-07-21T07:22:44;20.90;1.00
2657;DHT22;1338;48.176;11.792;2022-07-21T07:25:13;21.00;1.00
2657;DHT22;1338;48.176;11.792;2022-07-21T07:27:44;21.00;1.00
2657;DHT22;1338;48.176;11.792;2022-07-21T07:30:13;21.20;1.00
2657;DHT22;1338;48.176;11.792;2022-07-21T07:32:42;21.40;1.00
2657;DHT22;1338;48.176;11.792;2022-07-21T07:35:12;21.70;1.00
2657;DHT22;1338;48.176;11.792;2022-07-21T07:37:42;21.80;1.00
2657;DHT22;1338;48.176;11.792;2022-07-21T07:40:13;21.80;1.00
2657;DHT22;1338;48.176;11.792;2022-07-21T07:42:42;21.70;1.00
2657;DHT22;1338;48.176;11.792;2022-07-21T07:45:11;21.70;1.00
2657;DHT22;1338;48.176;11.792;2022-07-21T07:47:40;21.80;1.00
2657;DHT22;1338;48.176;11.792;2022-07-21T07:50:10;21.90;1.00
2657;DHT22;1338;48.176;11.792;2022-07-21T07:52:42;21.80;1.00
2657;DHT22;1338;48.176;11.792;2022-07-21T07:55:10;21.80;1.00
2657;DHT22;1338;48.176;11.792;2022-07-21T07:57:40;21.90;1.00
2657;DHT22;1338;48.176;11.792;2022-07-21T08:00:11;21.50;1.00
2657;DHT22;1338;48.176;11.792;2022-07-21T08:03:00;21.60;1.00
2657;DHT22;1338;48.176;11.792;2022-07-21T08:05:28;21.80;1.00
2657;DHT22;1338;48.176;11.792;2022-07-21T08:07:57;21.70;1.00
2657;DHT22;1338;48.176;11.792;2022-07-21T08:10:26;22.20;1.00
2657;DHT22;1338;48.176;11.792;2022-07-21T08:13:11;22.00;1.00
2657;DHT22;1338;48.176;11.792;2022-07-21T08:15:39;22.00;1.00
2657;DHT22;1338;48.176;11.792;2022-07-21T08:18:07;21.80;1.00
2657;DHT22;1338;48.176;11.792;2022-07-21T08:20:36;21.60;1.00
2657;DHT22;1338;48.176;11.792;2022-07-21T08:23:07;21.90;1.00
2657;DHT22;1338;48.176;11.792;2022-07-21T08:25:38;21.70;1.00
2657;DHT22;1338;48.176;11.792;2022-07-21T08:28:06;22.00;1.00
2657;DHT22;1338;48.176;11.792;2022-07-21T08:30:35;22.10;1.00
2657;DHT22;1338;48.176;11.792;2022-07-21T08:33:04;21.60;1.00
2657;DHT22;1338;48.176;11.792;2022-07-21T08:35:32;21.60;1.00
2657;DHT22;1338;48.176;11.792;2022-07-21T08:38:03;22.40;1.00
2657;DHT22;1338;48.176;11.792;2022-07-21T08:40:35;22.20;1.00
2657;DHT22;1338;48.176;11.792;2022-07-21T08:43:04;22.30;1.00
2657;DHT22;1338;48.176;11.792;2022-07-21T08:45:33;21.80;1.00
2657;DHT22;1338;48.176;11.792;2022-07-21T08:48:02;22.00;1.00
2657;DHT22;1338;48.176;11.792;2022-07-21T08:50:34;22.40;1.00
2657;DHT22;1338;48.176;11.792;2022-07-21T08:53:03;22.60;1.00
2657;DHT22;1338;48.176;11.792;2022-07-21T08:55:34;22.50;1.00
2657;DHT22;1338;48.176;11.792;2022-07-21T08:58:03;22.20;1.00
2657;DHT22;1338;48.176;11.792;2022-07-21T09:00:34;22.30;1.00
2657;DHT22;1338;48.176;11.792;2022-07-21T09:03:14;22.20;1.00
2657;DHT22;1338;48.176;11.792;2022-07-21T09:05:58;21.80;1.00
2657;DHT22;1338;48.176;11.792;2022-07-21T09:08:29;21.90;1.00
2657;DHT22;1338;48.176;11.792;2022-07-21T09:11:15;22.20;1.00
2657;DHT22;1338;48.176;11.792;2022-07-21T09:13:45;22.20;1.00
2657;DHT22;1338;48.176;11.792;2022-07-21T09:16:32;22.10;1.00
2657;DHT22;1338;48.176;11.792;2022-07-21T09:19:00;22.10;1.00
2657;DHT22;1338;48.176;11.792;2022-07-21T09:21:29;21.90;1.00
2657;DHT22;1338;48.176;11.792;2022-07-21T09:24:11;22.20;1.00
2657;DHT22;1338;48.176;11.792;2022-07-21T09:27:06;22.10;1.00
2657;DHT22;1338;48.176;11.792;2022-07-21T09:29:38;22.60;1.00
2657;DHT22;1338;48.176;11.792;2022-07-21T09:32:15;22.30;1.00
2657;DHT22;1338;48.176;11.792;2022-07-21T09:34:44;22.30;1.00
2657;DHT22;1338;48.176;11.792;2022-07-21T09:37:13;22.40;1.00
2657;DHT22;1338;48.176;11.792;2022-07-21T09:39:43;22.30;1.00
2657;DHT22;1338;48.176;11.792;2022-07-21T09:42:19;22.20;1.00
2657;DHT22;1338;48.176;11.792;2022-07-21T09:44:50;22.00;1.00
2657;DHT22;1338;48.176;11.792;2022-07-21T09:47:19;22.10;1.00
2657;DHT22;1338;48.176;11.792;2022-07-21T09:49:48;22.30;1.00
2657;DHT22;1338;48.176;11.792;2022-07-21T09:52:38;22.30;1.00
2657;DHT22;1338;48.176;11.792;2022-07-21T09:55:09;22.20;1.00
2657;DHT22;1338;48.176;11.792;2022-07-21T09:57:39;22.10;1.00
2657;DHT22;1338;48.176;11.792;2022-07-21T10:00:10;21.80;1.00
2657;DHT22;1338;48.176;11.792;2022-07-21T10:02:46;22.10;1.00
2657;DHT22;1338;48.176;11.792;2022-07-21T10:05:16;22.00;1.00
2657;DHT22;1338;48.176;11.792;2022-07-21T10:07:46;22.00;1.00
2657;DHT22;1338;48.176;11.792;2022-07-21T10:10:16;21.90;1.00
2657;DHT22;1338;48.176;11.792;2022-07-21T10:12:49;21.70;1.00
2657;DHT22;1338;48.176;11.792;2022-07-21T10:15:18;21.40;1.00
2657;DHT22;1338;48.176;11.792;2022-07-21T10:17:48;21.40;1.00
2657;DHT22;1338;48.176;11.792;2022-07-21T10:20:25;21.50;1.00
2657;DHT22;1338;48.176;11.792;2022-07-21T10:22:59;21.40;1.00
2657;DHT22;1338;48.176;11.792;2022-07-21T10:25:31;21.50;1.00
2657;DHT22;1338;48.176;11.792;2022-07-21T10:28:15;21.60;1.00
2657;DHT22;1338;48.176;11.792;2022-07-21T10:30:45;21.40;1.00
2657;DHT22;1338;48.176;11.792;2022-07-21T10:33:16;21.60;1.00
2657;DHT22;1338;48.176;11.792;2022-07-21T10:35:46;21.60;1.00
2657;DHT22;1338;48.176;11.792;2022-07-21T10:38:28;21.70;1.00
2657;DHT22;1338;48.176;11.792;2022-07-21T10:40:57;21.50;1.00
2657;DHT22;1338;48.176;11.792;2022-07-21T10:43:53;21.60;1.00
2657;DHT22;1338;48.176;11.792;2022-07-21T10:46:38;21.60;1.00
2657;DHT22;1338;48.176;11.792;2022-07-21T10:49:08;21.60;1.00
2657;DHT22;1338;48.176;11.792;2022-07-21T10:51:38;21.70;1.00
2657;DHT22;1338;48.176;11.792;2022-07-21T10:54:23;21.60;1.00
2657;DHT22;1338;48.176;11.792;2022-07-21T10:57:23;22.10;1.00
2657;DHT22;1338;48.176;11.792;2022-07-21T11:00:25;21.80;1.00
2657;DHT22;1338;48.176;11.792;2022-07-21T11:02:56;21.60;1.00
2657;DHT22;1338;48.176;11.792;2022-07-21T11:05:27;22.00;1.00
2657;DHT22;1338;48.176;11.792;2022-07-21T11:08:16;22.20;1.00
2657;DHT22;1338;48.176;11.792;2022-07-21T11:10:46;21.60;1.00
2657;DHT22;1338;48.176;11.792;2022-07-21T11:13:15;22.00;1.00
2657;DHT22;1338;48.176;11.792;2022-07-21T11:16:00;21.60;1.00
2657;DHT22;1338;48.176;11.792;2022-07-21T11:18:30;22.00;1.00
2657;DHT22;1338;48.176;11.792;2022-07-21T11:21:01;21.40;1.00
2657;DHT22;1338;48.176;11.792;2022-07-21T11:23:41;21.80;1.00
2657;DHT22;1338;48.176;11.792;2022-07-21T11:26:10;21.70;1.00
2657;DHT22;1338;48.176;11.792;2022-07-21T11:28:38;21.80;1.00
2657;DHT22;1338;48.176;11.792;2022-07-21T11:31:11;21.20;1.00
2657;DHT22;1338;48.176;11.792;2022-07-21T11:33:41;21.20;1.00
2657;DHT22;1338;48.176;11.792;2022-07-21T11:36:21;21.40;1.00
2657;DHT22;1338;48.176;11.792;2022-07-21T11:39:03;21.50;1.00
2657;DHT22;1338;48.176;11.792;2022-07-21T11:41:32;21.70;1.00
2657;DHT22;1338;48.176;11.792;2022-07-21T11:44:01;22.30;1.00
2657;DHT22;1338;48.176;11.792;2022-07-21T11:46:47;22.00;1.00
2657;DHT22;1338;48.176;11.792;2022-07-21T11:49:16;22.10;1.00
2657;DHT22;1338;48.176;11.792;2022-07-21T11:51:48;22.40;1.00
2657;DHT22;1338;48.176;11.792;2022-07-21T11:54:26;22.20;1.00
2657;DHT22;1338;48.176;11.792;2022-07-21T11:56:55;22.10;1.00
2657;DHT22;1338;48.176;11.792;2022-07-21T11:59:24;22.50;1.00
2657;DHT22;1338;48.176;11.792;2022-07-21T12:01:56;22.10;1.00
2657;DHT22;1338;48.176;11.792;2022-07-21T12:04:40;21.90;1.00
2657;DHT22;1338;48.176;11.792;2022-07-21T12:07:18;21.80;1.00
2657;DHT22;1338;48.176;11.792;2022-07-21T12:09:49;22.80;1.00
2657;DHT22;1338;48.176;11.792;2022-07-21T12:12:28;23.00;1.00
2657;DHT22;1338;48.176;11.792;2022-07-21T12:14:58;22.90;1.00
2657;DHT22;1338;48.176;11.792;2022-07-21T12:17:39;22.30;1.00
2657;DHT22;1338;48.176;11.792;2022-07-21T12:20:08;22.20;1.00
2657;DHT22;1338;48.176;11.792;2022-07-21T12:22:39;22.60;1.00
2657;DHT22;1338;48.176;11.792;2022-07-21T12:25:10;23.10;1.00
2657;DHT22;1338;48.176;11.792;2022-07-21T12:27:41;23.30;1.00
2657;DHT22;1338;48.176;11.792;2022-07-21T12:33:07;22.30;1.00
2657;DHT22;1338;48.176;11.792;2022-07-21T12:35:37;22.60;1.00
2657;DHT22;1338;48.176;11.792;2022-07-21T12:38:08;22.70;1.00
2657;DHT22;1338;48.176;11.792;2022-07-21T12:40:39;22.50;1.00
2657;DHT22;1338;48.176;11.792;2022-07-21T12:43:27;22.90;1.00
2657;DHT22;1338;48.176;11.792;2022-07-21T12:45:58;23.50;1.00
2657;DHT22;1338;48.176;11.792;2022-07-21T12:48:30;23.40;1.00
2657;DHT22;1338;48.176;11.792;2022-07-21T12:51:04;23.00;1.00
2657;DHT22;1338;48.176;11.792;2022-07-21T12:53:35;23.80;1.00
2657;DHT22;1338;48.176;11.792;2022-07-21T12:56:04;23.20;1.00
2657;DHT22;1338;48.176;11.792;2022-07-21T12:58:32;23.40;1.00
2657;DHT22;1338;48.176;11.792;2022-07-21T13:01:01;23.70;1.00
2657;DHT22;1338;48.176;11.792;2022-07-21T13:03:32;23.90;1.00
2657;DHT22;1338;48.176;11.792;2022-07-21T13:06:03;23.10;1.00
2657;DHT22;1338;48.176;11.792;2022-07-21T13:08:37;22.40;1.00
2657;DHT22;1338;48.176;11.792;2022-07-21T13:11:06;23.90;1.00
2657;DHT22;1338;48.176;11.792;2022-07-21T13:13:35;23.60;1.00
2657;DHT22;1338;48.176;11.792;2022-07-21T13:16:04;23.60;1.00
2657;DHT22;1338;48.176;11.792;2022-07-21T13:18:34;22.90;1.00
2657;DHT22;1338;48.176;11.792;2022-07-21T13:21:04;22.90;1.00
2657;DHT22;1338;48.176;11.792;2022-07-21T13:23:32;23.20;1.00
2657;DHT22;1338;48.176;11.792;2022-07-21T13:26:01;23.50;1.00
2657;DHT22;1338;48.176;11.792;2022-07-21T13:28:33;24.00;1.00
2657;DHT22;1338;48.176;11.792;2022-07-21T13:31:04;24.30;1.00
2657;DHT22;1338;48.176;11.792;2022-07-21T13:33:36;24.60;1.00
2657;DHT22;1338;48.176;11.792;2022-07-21T13:36:05;24.20;1.00
2657;DHT22;1338;48.176;11.792;2022-07-21T13:38:34;23.50;1.00
2657;DHT22;1338;48.176;11.792;2022-07-21T13:41:02;23.80;1.00
2657;DHT22;1338;48.176;11.792;2022-07-21T13:43:51;23.30;1.00
2657;DHT22;1338;48.176;11.792;2022-07-21T13:46:20;24.10;1.00
2657;DHT22;1338;48.176;11.792;2022-07-21T13:48:50;24.30;1.00
2657;DHT22;1338;48.176;11.792;2022-07-21T13:51:19;24.50;1.00
2657;DHT22;1338;48.176;11.792;2022-07-21T13:53:49;24.60;1.00
2657;DHT22;1338;48.176;11.792;2022-07-21T13:56:18;24.30;1.00
2657;DHT22;1338;48.176;11.792;2022-07-21T13:58:47;23.40;1.00
2657;DHT22;1338;48.176;11.792;2022-07-21T14:01:15;23.80;1.00
2657;DHT22;1338;48.176;11.792;2022-07-21T14:03:44;24.30;1.00
2657;DHT22;1338;48.176;11.792;2022-07-21T14:06:15;23.30;1.00
2657;DHT22;1338;48.176;11.792;2022-07-21T14:08:44;23.20;1.00
2657;DHT22;1338;48.176;11.792;2022-07-21T14:11:12;22.80;1.00
2657;DHT22;1338;48.176;11.792;2022-07-21T14:13:42;23.10;1.00
2657;DHT22;1338;48.176;11.792;2022-07-21T14:16:11;23.00;1.00
2657;DHT22;1338;48.176;11.792;2022-07-21T14:18:40;23.30;1.00
2657;DHT22;1338;48.176;11.792;2022-07-21T14:21:08;23.80;1.00
2657;DHT22;1338;48.176;11.792;2022-07-21T14:23:38;23.60;1.00
2657;DHT22;1338;48.176;11.792;2022-07-21T14:26:07;23.20;1.00
2657;DHT22;1338;48.176;11.792;2022-07-21T14:28:35;23.40;1.00
2657;DHT22;1338;48.176;11.792;2022-07-21T14:31:04;23.80;1.00
2657;DHT22;1338;48.176;11.792;2022-07-21T14:33:32;24.50;1.00
2657;DHT22;1338;48.176;11.792;2022-07-21T14:36:00;24.40;1.00
2657;DHT22;1338;48.176;11.792;2022-07-21T14:38:28;24.90;1.00
2657;DHT22;1338;48.176;11.792;2022-07-21T14:40:58;25.20;1.00
2657;DHT22;1338;48.176;11.792;2022-07-21T14:43:27;24.30;1.00
2657;DHT22;1338;48.176;11.792;2022-07-21T14:45:55;24.80;1.00
2657;DHT22;1338;48.176;11.792;2022-07-21T14:48:24;25.80;1.00
2657;DHT22;1338;48.176;11.792;2022-07-21T14:50:52;27.10;1.00
2657;DHT22;1338;48.176;11.792;2022-07-21T14:53:20;28.30;1.00
2657;DHT22;1338;48.176;11.792;2022-07-21T14:55:48;28.30;1.00
2657;DHT22;1338;48.176;11.792;2022-07-21T14:58:18;28.00;1.00
2657;DHT22;1338;48.176;11.792;2022-07-21T15:00:46;29.10;1.00
2657;DHT22;1338;48.176;11.792;2022-07-21T15:03:15;29.40;1.00
2657;DHT22;1338;48.176;11.792;2022-07-21T15:05:43;27.80;1.00
2657;DHT22;1338;48.176;11.792;2022-07-21T15:08:11;27.60;1.00
2657;DHT22;1338;48.176;11.792;2022-07-21T15:10:41;28.60;1.00
2657;DHT22;1338;48.176;11.792;2022-07-21T15:13:10;27.00;1.00
2657;DHT22;1338;48.176;11.792;2022-07-21T15:15:39;27.50;1.00
2657;DHT22;1338;48.176;11.792;2022-07-21T15:18:08;26.50;1.00
2657;DHT22;1338;48.176;11.792;2022-07-21T15:20:36;26.40;1.00
2657;DHT22;1338;48.176;11.792;2022-07-21T15:23:05;28.00;1.00
2657;DHT22;1338;48.176;11.792;2022-07-21T15:25:34;27.80;1.00
2657;DHT22;1338;48.176;11.792;2022-07-21T15:28:02;27.00;1.00
2657;DHT22;1338;48.176;11.792;2022-07-21T15:30:32;26.50;1.00
2657;DHT22;1338;48.176;11.792;2022-07-21T15:33:02;25.60;1.00
2657;DHT22;1338;48.176;11.792;2022-07-21T15:35:30;25.60;1.00
2657;DHT22;1338;48.176;11.792;2022-07-21T15:37:58;26.30;1.00
2657;DHT22;1338;48.176;11.792;2022-07-21T15:40:27;27.60;1.00
2657;DHT22;1338;48.176;11.792;2022-07-21T15:42:55;27.70;1.00
2657;DHT22;1338;48.176;11.792;2022-07-21T15:45:23;27.60;99.90
2657;DHT22;1338;48.176;11.792;2022-07-21T15:47:51;27.30;1.00
2657;DHT22;1338;48.176;11.792;2022-07-21T15:50:21;26.90;1.00
2657;DHT22;1338;48.176;11.792;2022-07-21T15:52:49;25.50;1.00
2657;DHT22;1338;48.176;11.792;2022-07-21T15:55:17;27.30;1.00
2657;DHT22;1338;48.176;11.792;2022-07-21T15:57:46;27.00;1.00
2657;DHT22;1338;48.176;11.792;2022-07-21T16:00:14;25.50;1.00
2657;DHT22;1338;48.176;11.792;2022-07-21T16:02:44;26.10;1.00
2657;DHT22;1338;48.176;11.792;2022-07-21T16:05:15;27.00;1.00
2657;DHT22;1338;48.176;11.792;2022-07-21T16:07:47;26.90;1.00
2657;DHT22;1338;48.176;11.792;2022-07-21T16:10:22;26.40;1.00
2657;DHT22;1338;48.176;11.792;2022-07-21T16:12:51;26.20;1.00
2657;DHT22;1338;48.176;11.792;2022-07-21T16:15:21;26.30;1.00
2657;DHT22;1338;48.176;11.792;2022-07-21T16:17:50;26.50;1.00
2657;DHT22;1338;48.176;11.792;2022-07-21T16:20:20;26.40;1.00
2657;DHT22;1338;48.176;11.792;2022-07-21T16:22:50;26.50;1.00
2657;DHT22;1338;48.176;11.792;2022-07-21T16:25:20;27.20;1.00
2657;DHT22;1338;48.176;11.792;2022-07-21T16:27:52;26.00;1.00